Time;durP1;ratioP1;P1;durP2;ratioP2;P2;SDS_P1;SDS_P2;PMS_P1;PMS_P2;Temp;Humidity;BMP_temperature;BMP_pressure;BME280_temperature;BME280_humidity;BME280_pressure;Samples;Min_cycle;Max_cycle;Signal;HPM_P1;HPM_P2
2021/09/30 00:01:28;;;;;;;3.07;1.60;;;11.40;99.90;;;;;;4173239;28;20040;-78
2021/09/30 00:03:30;;;;;;;5.38;1.45;;;11.50;99.90;;;;;;4175282;28;20696;-78
2021/09/30 00:05:38;;;;;;;4.07;1.33;;;11.50;99.90;;;;;;4157500;28;20033;-78
2021/09/30 00:07:42;;;;;;;4.03;1.15;;;11.50;99.90;;;;;;4176092;28;20032;-78
2021/09/30 00:09:45;;;;;;;6.50;1.92;;;11.50;99.90;;;;;;4176519;28;20110;-79
2021/09/30 00:11:49;;;;;;;4.80;1.55;;;11.40;99.90;;;;;;4173486;28;20021;-78
2021/09/30 00:14:05;;;;;;;5.03;1.27;;;11.40;99.90;;;;;;4155299;28;20037;-79
2021/09/30 00:32:27;;;;;;;5.15;1.42;;;11.30;99.90;;;;;;4174967;28;20037;-78
2021/09/30 00:32:49;;;;;;;2.38;1.20;;;11.30;99.90;;;;;;4170492;28;20033;-79
2021/09/30 00:40:00;;;;;;;2.85;1.30;;;11.30;99.90;;;;;;4172390;28;20028;-79
2021/09/30 00:52:47;;;;;;;3.92;1.70;;;11.20;99.90;;;;;;4178468;28;20033;-78
2021/09/30 02:18:29;;;;;;;2.55;1.15;;;11.00;99.90;;;;;;4163745;28;20041;-78
2021/09/30 02:59:17;;;;;;;3.28;1.40;;;10.90;99.90;;;;;;4169313;28;20036;-79
2021/09/30 03:01:24;;;;;;;3.58;1.42;;;11.00;99.90;;;;;;4174577;28;20037;-79
2021/09/30 03:03:34;;;;;;;4.68;1.40;;;10.90;99.90;;;;;;4175889;28;20040;-79
2021/09/30 03:05:35;;;;;;;7.40;1.70;;;11.00;99.90;;;;;;4176451;28;20104;-78
2021/09/30 03:07:37;;;;;;;4.05;1.02;;;11.00;99.90;;;;;;4175912;28;20048;-79
2021/09/30 03:09:41;;;;;;;4.97;1.30;;;11.00;99.90;;;;;;4174936;28;20095;-79
2021/09/30 03:11:54;;;;;;;5.32;1.67;;;10.90;99.90;;;;;;4159695;28;20642;-78
2021/09/30 03:13:58;;;;;;;5.55;1.42;;;10.90;99.90;;;;;;4176438;28;20025;-79
2021/09/30 03:16:04;;;;;;;7.93;2.10;;;10.80;99.90;;;;;;4177555;28;20040;-79
2021/09/30 03:22:28;;;;;;;4.10;1.45;;;10.80;99.90;;;;;;4169706;28;20045;-79
2021/09/30 03:24:32;;;;;;;5.25;1.33;;;10.80;99.90;;;;;;4177843;28;20033;-79
2021/09/30 03:26:33;;;;;;;4.57;1.67;;;10.80;99.90;;;;;;4170674;28;20042;-78
2021/09/30 03:28:35;;;;;;;5.38;1.42;;;10.80;99.90;;;;;;4177382;28;20734;-79
2021/09/30 03:30:41;;;;;;;4.55;1.40;;;10.80;99.90;;;;;;4178434;28;20037;-79
2021/09/30 03:32:43;;;;;;;3.33;1.35;;;10.80;99.90;;;;;;4158724;28;20100;-79
2021/09/30 03:34:45;;;;;;;5.22;1.45;;;10.80;99.90;;;;;;4152054;28;20036;-79
2021/09/30 03:36:46;;;;;;;3.47;1.50;;;10.80;99.90;;;;;;4150885;28;20091;-79
2021/09/30 03:38:46;;;;;;;4.38;1.58;;;10.80;99.90;;;;;;4158391;28;20026;-79
2021/09/30 03:40:48;;;;;;;8.05;1.50;;;10.80;99.90;;;;;;4140330;28;20128;-79
2021/09/30 03:42:48;;;;;;;3.72;1.25;;;10.80;99.90;;;;;;4154836;28;20045;-78
2021/09/30 03:44:50;;;;;;;4.25;1.48;;;10.80;99.90;;;;;;4142825;28;20497;-79
2021/09/30 03:46:53;;;;;;;4.20;1.58;;;10.80;99.90;;;;;;4154702;28;20029;-79
2021/09/30 03:49:09;;;;;;;;;;;10.70;99.90;;;;;;4160164;28;20091;-78
2021/09/30 03:51:20;;;;;;;5.78;1.92;;;10.70;99.90;;;;;;4190967;28;20514;-78
2021/09/30 03:53:41;;;;;;;4.20;1.48;;;10.60;99.90;;;;;;4175417;28;20678;-79
2021/09/30 03:56:06;;;;;;;5.03;1.50;;;10.70;99.90;;;;;;4179320;28;20108;-79
2021/09/30 04:00:08;;;;;;;3.92;1.27;;;10.60;99.90;;;;;;4179413;28;20509;-79
2021/09/30 04:02:08;;;;;;;3.53;1.58;;;10.60;99.90;;;;;;4177765;28;20649;-78
2021/09/30 04:04:09;;;;;;;5.82;2.15;;;10.50;99.90;;;;;;4175603;28;20029;-79
2021/09/30 04:06:12;;;;;;;3.42;1.45;;;10.60;99.90;;;;;;4171933;28;20508;-79
2021/09/30 04:08:14;;;;;;;6.55;1.88;;;10.50;99.90;;;;;;4174578;28;20037;-79
2021/09/30 04:10:15;;;;;;;;;;;10.50;99.90;;;;;;4177589;28;20481;-79
2021/09/30 04:12:15;;;;;;;6.57;1.80;;;10.50;99.90;;;;;;4158261;28;19913;-78
2021/09/30 04:14:16;;;;;;;4.60;1.75;;;10.50;99.90;;;;;;4170946;28;20416;-79
2021/09/30 04:16:17;;;;;;;5.63;1.70;;;10.50;99.90;;;;;;4177231;28;20029;-79
2021/09/30 04:18:26;;;;;;;3.38;1.63;;;10.50;99.90;;;;;;4175234;28;20471;-78
2021/09/30 04:20:27;;;;;;;4.47;1.30;;;10.50;99.90;;;;;;4165768;28;20045;-79
2021/09/30 04:22:27;;;;;;;6.13;1.85;;;10.40;99.90;;;;;;4177113;28;20033;-79
2021/09/30 04:24:28;;;;;;;4.03;1.45;;;10.40;99.90;;;;;;4171514;28;20083;-79
2021/09/30 04:26:29;;;;;;;3.22;1.40;;;10.50;99.90;;;;;;4171725;28;20041;-78
2021/09/30 04:28:29;;;;;;;7.78;2.05;;;10.40;99.90;;;;;;4176584;28;20125;-79
2021/09/30 04:30:30;;;;;;;3.95;1.77;;;10.40;99.90;;;;;;4169668;28;20707;-79
2021/09/30 04:32:31;;;;;;;7.95;1.70;;;10.40;99.90;;;;;;4174843;28;20504;-79
2021/09/30 04:34:32;;;;;;;10.15;1.98;;;10.40;99.90;;;;;;4144159;28;20112;-78
2021/09/30 04:36:33;;;;;;;3.22;1.48;;;10.40;99.90;;;;;;4152492;28;20037;-78
2021/09/30 04:38:34;;;;;;;5.93;1.60;;;10.40;99.90;;;;;;4133493;28;20462;-78
2021/09/30 04:40:35;;;;;;;7.07;1.90;;;10.40;99.90;;;;;;4158058;28;20531;-78
2021/09/30 04:42:35;;;;;;;4.50;1.55;;;10.30;99.90;;;;;;4156841;28;20052;-79
2021/09/30 04:44:36;;;;;;;5.70;1.73;;;10.40;99.90;;;;;;4153729;28;20454;-78
2021/09/30 04:46:37;;;;;;;3.78;1.95;;;10.40;99.90;;;;;;4152081;28;20521;-79
2021/09/30 04:48:37;;;;;;;9.05;2.10;;;10.40;99.90;;;;;;4158071;28;20630;-79
2021/09/30 04:50:38;;;;;;;5.30;1.98;;;10.40;99.90;;;;;;4158849;28;20030;-78
2021/09/30 04:52:39;;;;;;;9.85;2.10;;;10.40;99.90;;;;;;4152750;28;20053;-78
2021/09/30 04:54:40;;;;;;;6.38;1.63;;;10.40;99.90;;;;;;4153748;28;20045;-77
2021/09/30 04:56:41;;;;;;;4.45;1.73;;;10.30;99.90;;;;;;4153328;28;20043;-77
2021/09/30 04:58:42;;;;;;;6.07;1.55;;;10.30;99.90;;;;;;4153373;28;20028;-77
2021/09/30 05:00:42;;;;;;;6.82;1.80;;;10.30;99.90;;;;;;4153582;28;20033;-77
2021/09/30 05:02:47;;;;;;;5.93;2.17;;;10.30;99.90;;;;;;4155636;28;20477;-77
2021/09/30 05:04:47;;;;;;;6.10;1.98;;;10.30;99.90;;;;;;4156164;28;20026;-77
2021/09/30 05:06:48;;;;;;;8.20;1.80;;;10.40;99.90;;;;;;4136048;28;21253;-77
2021/09/30 05:08:50;;;;;;;5.53;1.83;;;10.30;99.90;;;;;;4154357;28;20606;-77
2021/09/30 05:10:51;;;;;;;7.37;2.20;;;10.30;99.90;;;;;;4171097;28;20116;-77
2021/09/30 05:12:55;;;;;;;4.82;1.60;;;10.30;99.90;;;;;;4171447;28;20037;-79
2021/09/30 05:15:03;;;;;;;4.57;1.90;;;10.30;99.90;;;;;;4155428;28;20046;-79
2021/09/30 05:17:05;;;;;;;9.25;2.00;;;10.30;99.90;;;;;;4173210;28;20091;-79
2021/09/30 05:19:10;;;;;;;;;;;10.20;99.90;;;;;;4180118;28;20024;-79
2021/09/30 05:21:12;;;;;;;3.13;1.45;;;10.30;99.90;;;;;;4175639;28;19904;-79
2021/09/30 05:23:14;;;;;;;6.05;1.70;;;10.20;99.90;;;;;;4166957;28;20665;-79
2021/09/30 05:25:15;;;;;;;;;;;10.30;99.90;;;;;;4175174;28;20053;-79
2021/09/30 05:27:25;;;;;;;4.00;1.70;;;10.20;99.90;;;;;;4177824;28;19909;-79
2021/09/30 05:29:27;;;;;;;3.92;1.70;;;10.20;99.90;;;;;;4174674;28;20397;-79
2021/09/30 05:31:31;;;;;;;5.88;1.70;;;10.30;99.90;;;;;;4172366;28;20025;-79
2021/09/30 05:33:31;;;;;;;5.03;1.85;;;10.30;99.90;;;;;;4173394;28;20043;-77
2021/09/30 05:35:34;;;;;;;5.72;1.60;;;10.30;99.90;;;;;;4168738;28;20041;-77
2021/09/30 05:37:39;;;;;;;5.63;2.78;;;10.30;99.90;;;;;;4173761;28;20408;-79
2021/09/30 05:39:42;;;;;;;7.93;2.08;;;10.30;99.90;;;;;;4174223;28;20025;-79
2021/09/30 05:41:52;;;;;;;3.88;1.80;;;10.30;99.90;;;;;;4171409;28;20040;-79
2021/09/30 05:43:57;;;;;;;7.57;2.15;;;10.40;99.90;;;;;;4170484;28;20029;-79
2021/09/30 05:45:58;;;;;;;10.73;2.55;;;10.40;99.90;;;;;;4153570;28;20072;-79
2021/09/30 05:47:59;;;;;;;7.70;2.50;;;10.40;99.90;;;;;;4171198;28;20047;-79
2021/09/30 05:50:00;;;;;;;7.53;2.13;;;10.30;99.90;;;;;;4172371;28;20508;-79
2021/09/30 05:52:01;;;;;;;13.32;5.97;;;10.30;99.90;;;;;;4173262;28;20480;-78
2021/09/30 05:54:02;;;;;;;6.05;2.70;;;10.30;99.90;;;;;;4166978;28;20041;-79
2021/09/30 05:56:03;;;;;;;9.65;2.33;;;10.30;99.90;;;;;;4166304;28;20087;-77
2021/09/30 05:58:03;;;;;;;6.00;1.98;;;10.30;99.90;;;;;;4172710;28;20044;-78
2021/09/30 06:00:14;;;;;;;4.90;1.33;;;10.20;99.90;;;;;;4166927;28;20040;-78
2021/09/30 06:04:28;;;;;;;4.45;1.60;;;10.20;99.90;;;;;;4170338;28;20989;-78
2021/09/30 06:11:55;;;;;;;5.97;1.85;;;10.10;99.90;;;;;;4169129;28;20057;-78
2021/09/30 06:14:00;;;;;;;6.57;2.00;;;10.10;99.90;;;;;;4167776;28;20040;-78
2021/09/30 06:16:06;;;;;;;3.95;2.05;;;10.10;99.90;;;;;;4165079;28;20456;-78
2021/09/30 06:18:08;;;;;;;5.43;2.05;;;10.10;99.90;;;;;;4166583;28;20400;-78
2021/09/30 06:20:09;;;;;;;5.97;2.10;;;10.20;99.90;;;;;;4167753;28;20033;-77
2021/09/30 06:22:09;;;;;;;8.23;2.13;;;10.10;99.90;;;;;;4167124;28;20024;-78
2021/09/30 06:24:10;;;;;;;8.10;2.20;;;10.10;99.90;;;;;;4166902;28;20412;-78
2021/09/30 06:26:11;;;;;;;6.60;2.20;;;10.10;99.90;;;;;;4149388;28;20081;-78
2021/09/30 06:28:11;;;;;;;8.80;2.28;;;10.20;99.90;;;;;;4166363;28;20087;-78
2021/09/30 06:30:13;;;;;;;9.40;2.53;;;10.20;99.90;;;;;;4149039;28;20063;-78
2021/09/30 06:32:14;;;;;;;9.25;2.92;;;10.20;99.90;;;;;;4165457;28;20059;-78
2021/09/30 06:34:15;;;;;;;5.75;2.22;;;10.10;99.90;;;;;;4167113;28;20529;-78
2021/09/30 06:36:16;;;;;;;5.78;2.03;;;10.10;99.90;;;;;;4167216;28;20478;-78
2021/09/30 06:38:17;;;;;;;7.55;2.55;;;10.20;99.90;;;;;;4172185;28;20109;-78
2021/09/30 06:40:19;;;;;;;9.02;2.35;;;10.20;99.90;;;;;;4153520;28;20030;-78
2021/09/30 06:42:19;;;;;;;7.25;2.20;;;10.20;99.90;;;;;;4154525;28;20464;-78
2021/09/30 06:44:20;;;;;;;6.90;2.45;;;10.20;99.90;;;;;;4151896;28;20057;-78
2021/09/30 06:46:22;;;;;;;4.95;2.33;;;10.20;99.90;;;;;;4172910;28;20041;-78
2021/09/30 06:48:22;;;;;;;4.90;2.23;;;10.20;99.90;;;;;;4170349;28;20037;-78
2021/09/30 06:50:23;;;;;;;6.32;2.15;;;10.30;99.90;;;;;;4170008;28;20251;-78
2021/09/30 06:52:24;;;;;;;9.50;2.53;;;10.30;99.90;;;;;;4156088;28;20042;-78
2021/09/30 06:54:24;;;;;;;9.45;2.33;;;10.30;99.90;;;;;;4171965;28;20492;-78
2021/09/30 06:56:26;;;;;;;6.75;2.75;;;10.30;99.90;;;;;;4173124;28;20037;-78
2021/09/30 06:58:27;;;;;;;14.03;2.93;;;10.30;99.90;;;;;;4170292;28;20127;-78
2021/09/30 07:00:28;;;;;;;8.93;3.17;;;10.40;99.90;;;;;;4173500;28;20271;-78
2021/09/30 07:02:28;;;;;;;7.10;2.90;;;10.40;99.90;;;;;;4169145;28;20032;-78
2021/09/30 07:04:32;;;;;;;9.95;3.03;;;10.40;99.90;;;;;;4173190;28;20041;-78
2021/09/30 07:06:32;;;;;;;11.52;2.88;;;10.40;99.90;;;;;;4176543;28;20029;-79
2021/09/30 07:08:42;;;;;;;3.38;2.33;;;10.50;99.90;;;;;;4172555;28;20072;-78
2021/09/30 07:10:42;;;;;;;9.13;2.88;;;10.60;99.90;;;;;;4173988;28;20552;-78
2021/09/30 07:12:43;;;;;;;7.45;3.05;;;10.60;99.90;;;;;;4172469;28;20056;-78
2021/09/30 07:14:47;;;;;;;4.75;2.63;;;10.70;99.90;;;;;;4172556;28;20028;-78
2021/09/30 07:16:47;;;;;;;8.07;3.40;;;10.70;99.90;;;;;;4158523;28;20034;-78
2021/09/30 07:18:48;;;;;;;6.82;3.03;;;10.70;99.90;;;;;;4173929;28;20021;-78
2021/09/30 07:21:00;;;;;;;8.52;3.30;;;10.70;99.90;;;;;;4175082;28;20022;-78
2021/09/30 07:23:01;;;;;;;6.18;3.30;;;10.70;99.90;;;;;;4172418;28;20031;-78
2021/09/30 07:25:04;;;;;;;6.35;2.58;;;10.70;99.90;;;;;;4176974;28;20025;-78
2021/09/30 07:27:09;;;;;;;6.28;2.58;;;10.80;99.90;;;;;;4173142;28;20508;-78
2021/09/30 07:29:10;;;;;;;8.02;3.20;;;10.90;99.90;;;;;;4173571;28;20037;-78
2021/09/30 07:31:10;;;;;;;6.60;3.00;;;10.90;99.90;;;;;;4172606;28;20029;-78
2021/09/30 07:33:11;;;;;;;7.55;3.33;;;10.90;99.90;;;;;;4176611;28;20032;-78
2021/09/30 07:35:12;;;;;;;10.55;3.40;;;11.00;99.90;;;;;;4176083;28;22647;-78
2021/09/30 07:37:13;;;;;;;8.02;3.10;;;11.00;99.90;;;;;;4161419;28;20662;-78
2021/09/30 07:39:16;;;;;;;7.72;3.25;;;11.10;99.90;;;;;;4173696;28;20513;-78
2021/09/30 07:41:17;;;;;;;6.82;3.08;;;11.20;99.90;;;;;;4176647;28;20047;-79
2021/09/30 07:43:18;;;;;;;5.28;2.97;;;11.30;99.90;;;;;;4175856;28;20452;-79
2021/09/30 07:45:18;;;;;;;13.50;3.92;;;11.30;99.90;;;;;;4176556;28;20036;-79
2021/09/30 07:47:19;;;;;;;8.68;3.42;;;11.50;99.90;;;;;;4177018;28;20059;-78
2021/09/30 07:49:20;;;;;;;7.30;3.20;;;11.60;99.90;;;;;;4177175;28;20459;-78
2021/09/30 07:51:20;;;;;;;9.02;3.30;;;11.70;99.90;;;;;;4177226;28;20079;-79
2021/09/30 07:53:21;;;;;;;6.03;3.15;;;11.80;99.90;;;;;;4158858;28;20484;-79
2021/09/30 07:55:25;;;;;;;6.05;2.75;;;12.00;99.90;;;;;;4174893;28;20132;-79
2021/09/30 07:57:26;;;;;;;8.30;3.20;;;12.20;99.90;;;;;;4155940;28;20401;-79
2021/09/30 07:59:27;;;;;;;6.82;2.90;;;12.30;99.90;;;;;;4174695;28;20038;-79
2021/09/30 08:01:28;;;;;;;4.88;2.78;;;12.40;99.90;;;;;;4158782;28;20025;-79
2021/09/30 08:03:29;;;;;;;9.73;3.53;;;12.60;99.90;;;;;;4172130;28;20071;-77
2021/09/30 08:05:34;;;;;;;9.68;3.75;;;12.60;99.90;;;;;;4174275;28;20029;-77
2021/09/30 08:07:36;;;;;;;10.10;3.55;;;12.70;99.90;;;;;;4173516;28;20029;-77
2021/09/30 08:09:37;;;;;;;6.43;2.50;;;12.70;99.90;;;;;;4174454;28;20040;-78
2021/09/30 08:11:37;;;;;;;6.28;2.88;;;12.80;99.90;;;;;;4174464;28;20090;-77
2021/09/30 08:13:38;;;;;;;9.18;2.88;;;12.90;99.90;;;;;;4174414;28;20653;-77
2021/09/30 08:15:39;;;;;;;9.05;2.95;;;13.10;99.90;;;;;;4174501;28;20369;-77
2021/09/30 08:17:41;;;;;;;6.50;3.05;;;13.20;99.90;;;;;;4174046;28;20037;-77
2021/09/30 08:19:41;;;;;;;6.47;2.50;;;13.40;99.90;;;;;;4172862;28;20489;-77
2021/09/30 08:21:45;;;;;;;7.53;2.90;;;13.50;99.90;;;;;;4172565;28;20167;-77
2021/09/30 08:23:46;;;;;;;6.05;2.72;;;13.70;99.90;;;;;;4171629;28;20037;-76
2021/09/30 08:25:47;;;;;;;5.47;2.65;;;13.80;99.90;;;;;;4169822;28;20787;-77
2021/09/30 08:27:48;;;;;;;5.93;2.38;;;13.90;99.90;;;;;;4172340;28;20132;-76
2021/09/30 08:29:48;;;;;;;7.00;2.97;;;14.00;99.90;;;;;;4171817;28;20182;-77
2021/09/30 08:31:49;;;;;;;5.90;2.20;;;14.10;99.90;;;;;;4171857;28;20045;-76
2021/09/30 08:33:50;;;;;;;15.30;2.55;;;14.20;99.90;;;;;;4168520;28;20108;-76
2021/09/30 08:35:51;;;;;;;9.75;3.20;;;14.30;99.90;;;;;;4171443;28;20083;-77
2021/09/30 08:37:51;;;;;;;7.28;2.70;;;14.40;99.90;;;;;;4170194;28;20091;-76
2021/09/30 08:39:54;;;;;;;7.68;2.50;;;14.50;99.90;;;;;;4168709;28;20436;-76
2021/09/30 08:41:55;;;;;;;5.28;2.58;;;14.60;99.90;;;;;;4169932;28;20114;-76
2021/09/30 08:43:57;;;;;;;7.28;2.70;;;14.70;99.90;;;;;;4170490;28;20040;-76
2021/09/30 08:45:58;;;;;;;6.03;2.50;;;14.70;99.90;;;;;;4169744;28;20037;-76
2021/09/30 08:48:01;;;;;;;6.20;2.03;;;14.70;99.90;;;;;;4169335;28;20428;-76
2021/09/30 08:50:03;;;;;;;6.93;2.60;;;14.80;99.90;;;;;;4169536;28;20057;-76
2021/09/30 08:52:04;;;;;;;4.85;2.33;;;14.80;99.90;;;;;;4167304;28;21376;-76
2021/09/30 08:54:05;;;;;;;7.45;2.45;;;14.90;99.90;;;;;;4171118;28;20040;-77
2021/09/30 08:56:08;;;;;;;7.25;2.70;;;15.00;99.90;;;;;;4170481;28;20048;-76
2021/09/30 08:58:09;;;;;;;5.47;2.50;;;15.00;99.90;;;;;;4169210;28;20752;-76
2021/09/30 09:00:11;;;;;;;4.70;2.22;;;15.00;99.90;;;;;;4168890;28;20542;-76
2021/09/30 09:02:14;;;;;;;4.47;2.10;;;15.00;99.90;;;;;;4170527;28;20025;-77
2021/09/30 09:04:20;;;;;;;8.38;2.72;;;15.10;99.90;;;;;;4168414;28;20060;-76
2021/09/30 09:06:30;;;;;;;7.38;2.20;;;15.10;99.90;;;;;;4170683;28;20116;-76
2021/09/30 09:08:31;;;;;;;14.55;3.00;;;15.10;99.90;;;;;;4167991;28;20027;-76
2021/09/30 09:10:39;;;;;;;5.70;2.15;;;15.20;99.90;;;;;;4169209;28;20037;-76
2021/09/30 09:12:41;;;;;;;8.70;2.67;;;15.30;99.90;;;;;;4170285;28;20036;-76
2021/09/30 09:14:42;;;;;;;3.67;1.70;;;15.30;99.90;;;;;;4170819;28;20032;-76
2021/09/30 09:16:53;;;;;;;7.72;2.30;;;15.40;99.90;;;;;;4169505;28;20048;-76
2021/09/30 09:18:54;;;;;;;4.25;2.10;;;15.40;99.90;;;;;;4170070;28;20033;-76
2021/09/30 09:21:11;;;;;;;5.53;2.30;;;15.50;99.90;;;;;;4171737;28;20037;-77
2021/09/30 09:23:13;;;;;;;5.90;2.40;;;15.50;99.90;;;;;;4167389;28;20792;-76
2021/09/30 09:25:16;;;;;;;5.63;2.40;;;15.50;99.90;;;;;;4170079;28;20158;-76
2021/09/30 09:27:17;;;;;;;6.50;2.60;;;15.50;99.90;;;;;;4169120;28;20033;-76
2021/09/30 09:29:19;;;;;;;7.10;2.22;;;15.50;99.90;;;;;;4169837;28;20110;-76
2021/09/30 09:31:32;;;;;;;4.25;2.28;;;15.60;99.90;;;;;;4168146;28;20114;-77
2021/09/30 09:33:38;;;;;;;7.70;2.67;;;15.70;99.90;;;;;;4168659;28;20040;-76
2021/09/30 09:35:54;;;;;;;5.57;2.20;;;15.70;99.90;;;;;;4172625;28;20029;-76
2021/09/30 09:38:02;;;;;;;11.40;1.98;;;15.80;99.90;;;;;;4169884;28;20113;-74
2021/09/30 09:40:18;;;;;;;5.38;2.10;;;15.90;99.90;;;;;;4168142;28;20821;-74
2021/09/30 09:42:24;;;;;;;6.95;2.47;;;15.90;99.90;;;;;;4168208;28;20463;-74
2021/09/30 09:44:25;;;;;;;6.20;2.17;;;15.90;99.90;;;;;;4168304;28;20106;-74
2021/09/30 09:46:31;;;;;;;4.00;1.80;;;15.90;99.90;;;;;;4170240;28;20029;-74
2021/09/30 09:48:33;;;;;;;7.68;2.30;;;15.90;99.90;;;;;;4172205;28;20025;-74
2021/09/30 09:50:34;;;;;;;6.40;2.20;;;16.00;99.90;;;;;;4170894;28;20033;-74
2021/09/30 09:52:51;;;;;;;8.20;2.10;;;16.00;99.90;;;;;;4172999;28;20120;-74
2021/09/30 09:54:53;;;;;;;9.98;2.70;;;16.10;99.90;;;;;;4170330;28;20051;-73
2021/09/30 09:56:53;;;;;;;5.75;2.08;;;16.10;99.90;;;;;;4171901;28;20053;-74
2021/09/30 09:58:57;;;;;;;11.57;2.60;;;16.10;99.90;;;;;;4170827;28;20032;-74
2021/09/30 10:00:59;;;;;;;7.45;2.45;;;16.10;99.90;;;;;;4171897;28;20029;-73
2021/09/30 10:03:18;;;;;;;;;;;16.10;99.90;;;;;;4172179;28;20524;-74
2021/09/30 10:05:20;;;;;;;6.25;1.73;;;16.20;99.90;;;;;;4171193;28;19967;-73
2021/09/30 10:07:21;;;;;;;6.10;1.98;;;16.20;99.90;;;;;;4171731;28;20438;-73
2021/09/30 10:09:21;;;;;;;3.95;1.48;;;16.30;99.90;;;;;;4172400;28;20111;-73
2021/09/30 10:11:23;;;;;;;6.90;1.60;;;16.30;99.90;;;;;;4171829;28;20108;-73
2021/09/30 10:13:26;;;;;;;6.28;2.13;;;16.30;99.90;;;;;;4170464;28;20516;-73
2021/09/30 10:15:27;;;;;;;5.63;1.92;;;16.20;99.90;;;;;;4170017;28;20086;-73
2021/09/30 10:17:28;;;;;;;5.22;1.63;;;16.20;99.90;;;;;;4169601;28;20733;-73
2021/09/30 10:19:30;;;;;;;9.05;1.77;;;16.20;99.90;;;;;;4170167;28;20056;-73
2021/09/30 10:21:32;;;;;;;5.15;1.90;;;16.20;99.90;;;;;;4170372;28;20079;-73
2021/09/30 10:23:35;;;;;;;6.65;1.73;;;16.20;99.90;;;;;;4171865;28;20110;-72
2021/09/30 10:25:42;;;;;;;3.95;1.63;;;16.10;99.90;;;;;;4168767;28;20040;-73
2021/09/30 10:27:43;;;;;;;3.63;1.58;;;16.10;99.90;;;;;;4172125;28;20037;-73
2021/09/30 10:29:46;;;;;;;5.10;1.70;;;16.20;99.90;;;;;;4169780;28;20056;-73
2021/09/30 10:31:55;;;;;;;;;;;16.10;99.90;;;;;;4168038;28;20044;-73
2021/09/30 10:33:59;;;;;;;7.68;2.03;;;16.20;99.90;;;;;;4170369;28;20306;-73
2021/09/30 10:35:59;;;;;;;4.38;1.30;;;16.10;99.90;;;;;;4168279;28;20495;-73
2021/09/30 10:38:21;;;;;;;8.40;1.42;;;16.00;99.90;;;;;;4170154;28;20029;-73
2021/09/30 10:40:23;;;;;;;3.55;1.27;;;16.00;99.90;;;;;;4169695;28;20092;-73
2021/09/30 10:42:55;;;;;;;3.45;1.35;;;15.90;99.90;;;;;;4166061;28;20112;-73
2021/09/30 10:45:14;;;;;;;3.97;1.48;;;15.90;99.90;;;;;;4164549;28;21356;-73
2021/09/30 10:47:20;;;;;;;3.95;1.50;;;15.90;99.90;;;;;;4170208;28;20040;-73
2021/09/30 10:49:36;;;;;;;5.95;1.95;;;15.90;99.90;;;;;;4169343;28;20053;-73
2021/09/30 10:51:37;;;;;;;3.38;1.25;;;15.80;99.90;;;;;;4170601;28;20035;-73
2021/09/30 10:53:46;;;;;;;6.38;1.65;;;15.80;99.90;;;;;;4171477;28;20810;-72
2021/09/30 10:55:47;;;;;;;5.22;1.63;;;15.80;99.90;;;;;;4170283;28;20120;-73
2021/09/30 10:57:49;;;;;;;4.72;1.50;;;15.80;99.90;;;;;;4169465;28;20152;-73
2021/09/30 10:59:50;;;;;;;3.88;1.25;;;15.80;99.90;;;;;;4169782;28;20049;-73
2021/09/30 11:01:54;;;;;;;2.47;1.10;;;15.80;99.90;;;;;;4167615;28;20037;-73
2021/09/30 11:04:00;;;;;;;3.42;1.20;;;15.80;99.90;;;;;;4169420;28;20115;-73
2021/09/30 11:06:06;;;;;;;5.30;1.23;;;15.80;99.90;;;;;;4171160;28;20025;-73
2021/09/30 11:08:26;;;;;;;2.47;1.20;;;15.80;99.90;;;;;;4169011;28;20053;-73
2021/09/30 11:10:27;;;;;;;8.52;1.45;;;15.70;99.90;;;;;;4169690;28;20033;-73
2021/09/30 11:12:28;;;;;;;4.60;1.30;;;15.70;99.90;;;;;;4169432;28;20102;-73
2021/09/30 11:14:28;;;;;;;5.72;1.33;;;15.70;99.90;;;;;;4167586;28;20142;-73
2021/09/30 11:16:41;;;;;;;4.35;1.33;;;15.70;99.90;;;;;;4172876;28;20166;-73
2021/09/30 11:18:50;;;;;;;4.23;1.57;;;15.70;99.90;;;;;;4168343;28;20045;-73
2021/09/30 11:20:51;;;;;;;8.15;1.35;;;15.60;99.90;;;;;;4172005;28;20557;-73
2021/09/30 11:22:51;;;;;;;5.03;1.33;;;15.70;99.90;;;;;;4171103;28;20061;-73
2021/09/30 11:24:54;;;;;;;4.25;1.38;;;15.70;99.90;;;;;;4171102;28;20069;-73
2021/09/30 11:26:54;;;;;;;3.38;1.08;;;15.70;99.90;;;;;;4171420;28;20040;-73
2021/09/30 11:31:34;;;;;;;4.22;1.30;;;15.80;99.90;;;;;;4168429;28;20758;-73
2021/09/30 11:33:35;;;;;;;4.18;1.08;;;15.80;99.90;;;;;;4170118;28;20478;-73
2021/09/30 11:35:36;;;;;;;4.43;1.33;;;15.80;99.90;;;;;;4173725;28;20041;-73
2021/09/30 11:37:44;;;;;;;3.42;1.48;;;15.90;99.90;;;;;;4175036;28;20512;-73
2021/09/30 11:39:49;;;;;;;2.83;0.88;;;15.90;99.90;;;;;;4173314;28;20492;-72
2021/09/30 11:41:51;;;;;;;5.20;1.20;;;16.00;99.90;;;;;;4173740;28;20040;-73
2021/09/30 11:43:51;;;;;;;3.28;1.40;;;16.00;99.90;;;;;;4174110;28;20047;-75
2021/09/30 11:45:52;;;;;;;10.45;1.50;;;15.90;99.90;;;;;;4174834;28;20120;-73
2021/09/30 11:48:02;;;;;;;2.17;0.90;;;15.90;99.90;;;;;;4173821;28;20071;-73
2021/09/30 11:50:04;;;;;;;3.00;0.88;;;15.90;99.90;;;;;;4173434;28;20044;-73
2021/09/30 11:52:11;;;;;;;5.45;1.63;;;15.90;99.90;;;;;;4172511;28;20542;-72
2021/09/30 11:54:18;;;;;;;6.50;1.65;;;15.90;99.90;;;;;;4175672;28;20672;-72
2021/09/30 11:56:18;;;;;;;3.40;1.20;;;15.80;99.90;;;;;;4171970;28;20048;-73
2021/09/30 11:58:20;;;;;;;5.22;1.40;;;15.90;99.90;;;;;;4180600;28;20041;-72
2021/09/30 12:00:21;;;;;;;3.03;1.17;;;15.80;99.90;;;;;;4175516;28;20564;-73
2021/09/30 12:02:27;;;;;;;7.78;1.38;;;15.80;99.90;;;;;;4174788;28;20120;-73
2021/09/30 12:04:37;;;;;;;6.60;1.33;;;15.80;99.90;;;;;;4178544;28;20045;-72
2021/09/30 12:06:42;;;;;;;3.85;1.25;;;15.80;99.90;;;;;;4176503;28;20044;-72
2021/09/30 12:08:56;;;;;;;2.58;1.00;;;15.80;99.90;;;;;;4176073;28;20072;-72
2021/09/30 12:11:00;;;;;;;9.05;1.50;;;15.80;99.90;;;;;;4177997;28;20036;-73
2021/09/30 12:13:15;;;;;;;3.05;1.08;;;15.80;99.90;;;;;;4177475;28;20028;-73
2021/09/30 12:15:15;;;;;;;4.68;1.08;;;15.70;99.90;;;;;;4179757;28;20064;-73
2021/09/30 12:17:18;;;;;;;3.17;1.00;;;15.80;99.90;;;;;;4175725;28;20026;-73
2021/09/30 12:19:35;;;;;;;7.90;1.20;;;15.80;99.90;;;;;;4176593;28;20041;-72
2021/09/30 12:21:38;;;;;;;8.70;1.30;;;15.80;99.90;;;;;;4177197;28;20054;-73
2021/09/30 12:23:39;;;;;;;3.22;1.08;;;15.80;99.90;;;;;;4154052;28;20049;-73
2021/09/30 12:25:40;;;;;;;3.90;1.10;;;15.80;99.90;;;;;;4155272;28;20437;-73
2021/09/30 12:27:43;;;;;;;4.20;1.48;;;15.90;99.90;;;;;;4167610;28;20116;-72
2021/09/30 12:29:50;;;;;;;5.60;1.65;;;15.90;99.90;;;;;;4173252;28;20393;-73
2021/09/30 12:32:03;;;;;;;7.47;1.42;;;16.00;99.90;;;;;;4174043;28;20036;-73
2021/09/30 12:34:23;;;;;;;6.32;1.05;;;15.90;99.90;;;;;;4170488;28;20037;-73
2021/09/30 12:36:24;;;;;;;3.72;1.02;;;16.00;99.90;;;;;;4172132;28;20043;-73
2021/09/30 12:38:25;;;;;;;8.02;1.52;;;16.00;99.90;;;;;;4175962;28;20025;-72
2021/09/30 12:40:28;;;;;;;4.13;1.50;;;16.00;99.90;;;;;;4176267;28;20512;-72
2021/09/30 12:42:28;;;;;;;9.70;1.80;;;16.00;99.90;;;;;;4174848;28;20116;-73
2021/09/30 12:44:32;;;;;;;6.72;1.65;;;15.90;99.90;;;;;;4176127;28;20115;-73
2021/09/30 12:46:41;;;;;;;6.32;1.27;;;15.90;99.90;;;;;;4171555;28;20029;-73
2021/09/30 12:48:41;;;;;;;4.35;1.00;;;16.00;99.90;;;;;;4172354;28;20068;-72
2021/09/30 12:50:47;;;;;;;5.65;1.30;;;15.90;99.90;;;;;;4170230;28;20095;-73
2021/09/30 12:53:00;;;;;;;3.95;1.10;;;15.90;99.90;;;;;;4173536;28;20025;-74
2021/09/30 12:55:29;;;;;;;2.92;1.00;;;15.90;99.90;;;;;;4173317;28;20049;-73
2021/09/30 12:57:34;;;;;;;4.40;1.27;;;15.90;99.90;;;;;;4148702;28;20425;-74
2021/09/30 12:59:35;;;;;;;5.47;1.33;;;15.80;99.90;;;;;;4173238;28;20059;-73
2021/09/30 13:01:36;;;;;;;4.05;1.10;;;15.80;99.90;;;;;;4173162;28;20041;-73
2021/09/30 13:03:37;;;;;;;3.22;1.05;;;15.80;99.90;;;;;;4176042;28;20040;-74
2021/09/30 13:05:49;;;;;;;4.68;1.25;;;15.80;99.90;;;;;;4175065;28;20061;-74
2021/09/30 13:07:58;;;;;;;5.72;1.13;;;15.80;99.90;;;;;;4169561;28;20060;-74
2021/09/30 13:10:03;;;;;;;3.80;1.00;;;15.80;99.90;;;;;;4173382;28;20041;-74
2021/09/30 13:12:15;;;;;;;2.30;0.85;;;15.80;99.90;;;;;;4179228;28;20040;-74
2021/09/30 13:14:23;;;;;;;3.58;1.10;;;15.80;99.90;;;;;;4172223;28;20128;-74
2021/09/30 13:16:25;;;;;;;2.72;0.70;;;15.80;99.90;;;;;;4168159;28;20724;-74
2021/09/30 13:18:25;;;;;;;2.78;1.08;;;15.90;99.90;;;;;;4166492;28;20397;-73
2021/09/30 13:20:26;;;;;;;6.53;1.50;;;15.90;99.90;;;;;;4171675;28;20033;-74
2021/09/30 13:22:27;;;;;;;3.83;1.05;;;15.90;99.90;;;;;;4154545;28;20029;-73
2021/09/30 13:24:29;;;;;;;5.07;1.23;;;15.90;99.90;;;;;;4172061;28;20056;-73
2021/09/30 13:26:30;;;;;;;3.08;1.20;;;15.90;99.90;;;;;;4169330;28;20450;-73
2021/09/30 13:28:31;;;;;;;4.03;1.10;;;15.90;99.90;;;;;;4172097;28;20060;-73
2021/09/30 13:30:37;;;;;;;3.47;0.85;;;15.90;99.90;;;;;;4169785;28;20040;-73
2021/09/30 13:32:39;;;;;;;3.40;0.90;;;15.80;99.90;;;;;;4171837;28;20036;-74
2021/09/30 13:34:41;;;;;;;1.92;0.85;;;15.80;99.90;;;;;;4171314;28;20540;-73